CKS9 weather

Shepherd's Landing Airport
Kincardine, Ontario, Canada

Public forecast

Using degrees Celsius for public forecast. Weather courtesy of forecast.io.

METAR (pilot weather report)

Closest report is Wiarton Airport, 45.4 nm (84.2 km) NNE. Retrieved 2019/07/20 05:00 UTC (6 minutes ago):

CYVV 200500Z 15003KT 12SM FEW100 FEW250 22/22 A2981 RMK AC1CI1 SLP094 DENSITY ALT 1900FT

TAF (pilot weather forecast)

Forecast is more than 6 hours old.

Closest forecast is Wiarton Airport, 45.4 nm (84.2 km) NNE. Retrieved 2019/07/19 20:00 UTC (9 hours ago):

TAF CYVV 191941Z 1920/1923 23010KT P6SM SCT020 TEMPO 1920/1923 P6SM -SHRA BKN020 PROB30 1921/1923 VRB15G30KT 1SM +TSRA BR BKN007 OVC020CB RMK NXT FCST WILL BE ISSUED AT 201045Z